Time;durP1;ratioP1;P1;durP2;ratioP2;P2;SDS_P1;SDS_P2;PMS_P1;PMS_P2;Temp;Humidity;BMP_temperature;BMP_pressure;BME280_temperature;BME280_humidity;BME280_pressure;Samples;Min_cycle;Max_cycle;Signal;HPM_P1;HPM_P2
2022/11/16 00:01:05;;;;;;;13.27;9.20;;;9.70;99.90;;;;;;5013963;28;20380;-85
2022/11/16 00:03:31;;;;;;;14.98;8.60;;;9.80;99.90;;;;;;5015554;28;20550;-86
2022/11/16 00:06:00;;;;;;;16.45;9.30;;;9.80;99.90;;;;;;5015604;28;20253;-86
2022/11/16 00:08:28;;;;;;;16.27;9.00;;;9.80;99.90;;;;;;5015693;28;20621;-86
2022/11/16 00:10:54;;;;;;;15.75;10.07;;;9.80;99.90;;;;;;5014201;28;20211;-88
2022/11/16 00:13:19;;;;;;;18.70;10.10;;;9.80;99.90;;;;;;5014808;28;20233;-87
2022/11/16 00:15:57;;;;;;;14.63;9.90;;;9.80;99.90;;;;;;5014167;28;20202;-87
2022/11/16 00:18:23;;;;;;;17.40;9.95;;;9.80;99.90;;;;;;5015249;28;20682;-86
2022/11/16 00:20:49;;;;;;;17.50;10.45;;;9.80;99.90;;;;;;5014526;28;20222;-87
2022/11/16 00:23:15;;;;;;;14.00;8.90;;;9.80;99.90;;;;;;5013980;28;20230;-91
2022/11/16 00:25:41;;;;;;;18.33;9.93;;;9.80;99.90;;;;;;5029933;28;20230;-86
2022/11/16 00:28:07;;;;;;;16.52;9.57;;;9.80;99.90;;;;;;5014518;28;20171;-87
2022/11/16 00:30:33;;;;;;;18.50;10.55;;;9.80;99.90;;;;;;5014140;28;20217;-86
2022/11/16 00:33:03;;;;;;;16.77;9.60;;;9.80;99.90;;;;;;5014248;28;20271;-87
2022/11/16 00:35:30;;;;;;;20.77;9.88;;;9.80;99.90;;;;;;5014252;28;20223;-88
2022/11/16 00:37:55;;;;;;;16.50;9.27;;;9.80;99.90;;;;;;5013636;28;20182;-87
2022/11/16 00:40:21;;;;;;;17.02;9.73;;;9.80;99.90;;;;;;5014900;28;20502;-87
2022/11/16 00:42:47;;;;;;;15.77;9.70;;;9.80;99.90;;;;;;5014137;28;20214;-86
2022/11/16 00:45:13;;;;;;;14.70;9.20;;;9.80;99.90;;;;;;5030108;28;20175;-87
2022/11/16 00:47:38;;;;;;;15.00;10.15;;;9.80;99.90;;;;;;5013374;28;20186;-86
2022/11/16 00:50:05;;;;;;;15.10;9.85;;;9.80;99.90;;;;;;5013745;28;20686;-87
2022/11/16 00:52:30;;;;;;;17.80;9.93;;;9.80;99.90;;;;;;5013313;28;20198;-86
2022/11/16 00:54:56;;;;;;;14.98;10.30;;;9.80;99.90;;;;;;5013668;28;20614;-91
2022/11/16 00:57:23;;;;;;;16.63;9.57;;;9.70;99.90;;;;;;5013646;28;20190;-86
2022/11/16 00:59:49;;;;;;;19.88;10.75;;;9.80;99.90;;;;;;5013307;28;20629;-87
2022/11/16 01:02:14;;;;;;;17.27;10.77;;;9.70;99.90;;;;;;5013398;28;20227;-89
2022/11/16 01:04:40;;;;;;;16.17;10.63;;;9.70;99.90;;;;;;5014017;28;20187;-86
2022/11/16 01:07:06;;;;;;;20.45;11.73;;;9.70;99.90;;;;;;5013635;28;20614;-86
2022/11/16 01:09:32;;;;;;;17.20;10.48;;;9.70;99.90;;;;;;5431709;23;20259;-85
2022/11/16 01:12:11;;;;;;;18.02;10.77;;;9.70;99.90;;;;;;4995287;28;20184;-86
2022/11/16 01:14:45;;;;;;;18.60;10.50;;;9.70;99.90;;;;;;5010521;28;20180;-85
2022/11/16 01:17:12;;;;;;;16.48;10.48;;;9.60;99.90;;;;;;4998522;28;20175;-87
2022/11/16 01:19:38;;;;;;;18.13;10.82;;;9.70;99.90;;;;;;5000731;28;20176;-87
2022/11/16 01:22:05;;;;;;;17.90;10.52;;;9.70;99.90;;;;;;5000982;28;20176;-87
2022/11/16 01:24:31;;;;;;;25.25;10.93;;;9.60;99.90;;;;;;5000455;28;20276;-86
2022/11/16 01:26:57;;;;;;;19.95;11.07;;;9.60;99.90;;;;;;5000788;28;20176;-87
2022/11/16 01:29:28;;;;;;;23.50;10.43;;;9.60;99.90;;;;;;5000722;28;20183;-86
2022/11/16 01:31:56;;;;;;;15.68;10.70;;;9.60;99.90;;;;;;5001985;28;20227;-89
2022/11/16 01:34:23;;;;;;;18.13;11.00;;;9.60;99.90;;;;;;5000586;28;20180;-89
2022/11/16 01:36:49;;;;;;;15.90;9.80;;;9.60;99.90;;;;;;5000654;28;20175;-89
2022/11/16 01:39:15;;;;;;;16.83;10.73;;;9.60;99.90;;;;;;5000081;28;20183;-85
2022/11/16 01:41:42;;;;;;;18.70;11.05;;;9.60;99.90;;;;;;5000701;28;20188;-87
2022/11/16 01:44:32;;;;;;;16.13;10.73;;;9.60;99.90;;;;;;5000459;28;20172;-86
2022/11/16 01:47:00;;;;;;;15.75;9.93;;;9.50;99.90;;;;;;5000519;28;20211;-90
2022/11/16 01:49:30;;;;;;;22.40;10.35;;;9.60;99.90;;;;;;5001324;28;20222;-89
2022/11/16 01:52:04;;;;;;;17.33;9.80;;;9.50;99.90;;;;;;5000242;28;20208;-94
2022/11/16 01:54:33;;;;;;;15.32;9.48;;;9.50;99.90;;;;;;5001087;28;20239;-88
2022/11/16 01:57:03;;;;;;;17.57;10.77;;;9.50;99.90;;;;;;5001521;28;20275;-91
2022/11/16 01:59:29;;;;;;;16.58;10.40;;;9.40;99.90;;;;;;5002136;28;20210;-87
2022/11/16 02:01:57;;;;;;;18.02;10.05;;;9.50;99.90;;;;;;5000537;28;20692;-87
2022/11/16 02:04:23;;;;;;;21.85;9.52;;;9.40;99.90;;;;;;5000537;28;20621;-92
2022/11/16 02:07:08;;;;;;;16.50;10.07;;;9.40;99.90;;;;;;5000529;28;20180;-89
2022/11/16 02:09:57;;;;;;;15.03;10.10;;;9.40;99.90;;;;;;4999893;28;20271;-87
2022/11/16 02:13:00;;;;;;;16.38;9.60;;;9.30;99.90;;;;;;5000537;28;20176;-89
2022/11/16 02:15:42;;;;;;;14.77;8.93;;;9.30;99.90;;;;;;5000411;28;20202;-89
2022/11/16 02:18:20;;;;;;;16.73;11.05;;;9.30;99.90;;;;;;5000514;28;20262;-89
2022/11/16 02:21:15;;;;;;;13.82;9.35;;;9.30;99.90;;;;;;5000678;28;20618;-89
2022/11/16 02:23:55;;;;;;;14.88;9.35;;;9.30;99.90;;;;;;5000295;28;20175;-91
2022/11/16 02:26:41;;;;;;;15.73;9.55;;;9.20;99.90;;;;;;5000206;28;20226;-87
2022/11/16 02:29:29;;;;;;;16.20;9.57;;;9.20;99.90;;;;;;4996385;28;20224;-90
2022/11/16 02:32:16;;;;;;;12.83;8.60;;;9.10;99.90;;;;;;4997361;28;20211;-93
2022/11/16 02:35:07;;;;;;;14.90;8.68;;;9.10;99.90;;;;;;4997206;28;20172;-87
2022/11/16 02:37:42;;;;;;;13.97;8.90;;;9.00;99.90;;;;;;4961026;28;20184;-90
2022/11/16 02:40:11;;;;;;;16.57;9.03;;;9.00;99.90;;;;;;4996975;28;20218;-87
2022/11/16 02:42:49;;;;;;;15.47;8.63;;;8.90;99.90;;;;;;4997292;28;20512;-90
2022/11/16 02:45:23;;;;;;;12.17;8.90;;;8.90;99.90;;;;;;4997140;28;20622;-86
2022/11/16 02:47:52;;;;;;;12.73;8.17;;;8.90;99.90;;;;;;4996930;28;20172;-87
2022/11/16 02:50:20;;;;;;;14.07;9.32;;;8.80;99.90;;;;;;4996807;28;20218;-87
2022/11/16 02:52:46;;;;;;;16.00;9.23;;;8.80;99.90;;;;;;4996788;28;20187;-89
2022/11/16 02:55:12;;;;;;;14.50;8.63;;;8.80;99.90;;;;;;4996607;28;20513;-92
2022/11/16 02:57:48;;;;;;;11.53;8.17;;;8.80;99.90;;;;;;4996481;28;20270;-89
2022/11/16 03:00:52;;;;;;;15.53;8.90;;;8.80;99.90;;;;;;4996760;28;20186;-89
2022/11/16 03:03:27;;;;;;;13.90;9.03;;;8.80;99.90;;;;;;4996545;28;20186;-86
2022/11/16 03:05:59;;;;;;;15.27;9.47;;;8.80;99.90;;;;;;4996594;28;20222;-89
2022/11/16 03:08:33;;;;;;;14.13;9.13;;;8.70;99.90;;;;;;4996669;28;20183;-89
2022/11/16 03:13:48;;;;;;;19.97;10.60;;;8.70;99.90;;;;;;4997908;28;20175;-88
2022/11/16 03:16:23;;;;;;;14.50;9.90;;;8.70;99.90;;;;;;4996662;28;20191;-87
2022/11/16 03:18:51;;;;;;;13.23;9.60;;;8.60;99.90;;;;;;4995881;28;20179;-86
2022/11/16 03:21:44;;;;;;;17.20;10.00;;;8.60;99.90;;;;;;4995904;28;20191;-87
2022/11/16 03:24:10;;;;;;;16.60;10.43;;;8.60;99.90;;;;;;4996312;28;20180;-89
2022/11/16 03:27:02;;;;;;;19.00;10.20;;;8.60;99.90;;;;;;4997500;28;20303;-87
2022/11/16 03:29:43;;;;;;;20.57;10.10;;;8.60;99.90;;;;;;4987996;28;20274;-92
2022/11/16 03:32:27;;;;;;;18.57;10.37;;;8.50;99.90;;;;;;4996302;28;20199;-88
2022/11/16 03:35:03;;;;;;;21.33;11.30;;;8.50;99.90;;;;;;4996143;28;20198;-90
2022/11/16 03:37:30;;;;;;;16.27;10.40;;;8.50;99.90;;;;;;4996223;28;20184;-88
2022/11/16 03:39:57;;;;;;;17.40;11.47;;;8.50;99.90;;;;;;4995307;28;20623;-88
2022/11/16 03:42:26;;;;;;;17.73;10.70;;;8.40;99.90;;;;;;4996216;28;20520;-87
2022/11/16 03:44:53;;;;;;;20.70;11.23;;;8.40;99.90;;;;;;4996089;28;20172;-86
2022/11/16 03:47:19;;;;;;;20.07;11.60;;;8.40;99.90;;;;;;4995897;28;20191;-88
2022/11/16 03:49:46;;;;;;;19.33;12.07;;;8.40;99.90;;;;;;4995720;28;20180;-88
2022/11/16 03:52:18;;;;;;;18.67;11.97;;;8.30;99.90;;;;;;4995686;28;20247;-91
2022/11/16 03:54:44;;;;;;;19.70;12.00;;;8.40;99.90;;;;;;4995423;28;20172;-92
2022/11/16 03:57:14;;;;;;;17.63;12.07;;;8.30;99.90;;;;;;4995726;28;20187;-91
2022/11/16 03:59:42;;;;;;;20.13;11.93;;;8.30;99.90;;;;;;4995700;28;20176;-88
2022/11/16 04:02:09;;;;;;;17.50;11.30;;;8.30;99.90;;;;;;4995331;28;20203;-91
2022/11/16 04:28:12;;;;;;;20.63;12.97;;;8.10;99.90;;;;;;4995861;28;20518;-87
2022/11/16 04:29:19;;;;;;;21.70;14.20;;;8.00;99.90;;;;;;4996271;28;20238;-87
2022/11/16 04:39:59;;;;;;;20.30;13.53;;;7.90;99.90;;;;;;4995980;28;20223;-88
2022/11/16 04:42:25;;;;;;;21.03;13.73;;;7.90;99.90;;;;;;4994931;28;20211;-86
2022/11/16 04:47:35;;;;;;;23.70;14.17;;;7.80;99.90;;;;;;4996332;28;20171;-90
2022/11/16 04:50:00;;;;;;;22.30;14.13;;;7.70;99.90;;;;;;4994607;28;20215;-89
2022/11/16 04:52:32;;;;;;;22.77;14.77;;;7.70;99.90;;;;;;4994226;28;20184;-87
2022/11/16 04:54:58;;;;;;;25.27;15.77;;;7.70;99.90;;;;;;4994246;28;20230;-87
2022/11/16 04:57:24;;;;;;;26.70;16.33;;;7.70;99.90;;;;;;4995728;28;20199;-88
2022/11/16 04:59:49;;;;;;;24.97;15.47;;;7.70;99.90;;;;;;4978232;28;20239;-87
2022/11/16 05:02:15;;;;;;;22.27;15.53;;;7.60;99.90;;;;;;4975141;28;20516;-85
2022/11/16 05:04:43;;;;;;;26.63;16.13;;;7.60;99.90;;;;;;4974960;28;20298;-88
2022/11/16 05:07:11;;;;;;;23.90;14.47;;;7.60;99.90;;;;;;4975377;28;20242;-85
2022/11/16 05:09:42;;;;;;;24.03;14.90;;;7.60;99.90;;;;;;4982466;28;20236;-85
2022/11/16 05:12:18;;;;;;;23.87;15.17;;;7.60;99.90;;;;;;4994410;28;20192;-84
2022/11/16 05:14:44;;;;;;;20.93;14.90;;;7.60;99.90;;;;;;4994219;28;20325;-86
2022/11/16 05:17:10;;;;;;;21.80;14.53;;;7.60;99.90;;;;;;4994001;28;20187;-87
2022/11/16 05:22:21;;;;;;;29.20;15.17;;;7.60;99.90;;;;;;4995781;28;20179;-85
2022/11/16 05:24:46;;;;;;;25.23;14.77;;;7.50;99.90;;;;;;4993510;28;20218;-85
2022/11/16 05:27:15;;;;;;;22.83;14.17;;;7.50;99.90;;;;;;4994929;28;20209;-85
2022/11/16 05:29:41;;;;;;;20.80;14.47;;;7.60;99.90;;;;;;4994186;28;20180;-86
2022/11/16 05:32:12;;;;;;;21.50;13.80;;;7.60;99.90;;;;;;4994275;28;20183;-89
2022/11/16 05:34:38;;;;;;;20.47;13.00;;;7.60;99.90;;;;;;4993652;28;20172;-87
2022/11/16 05:37:04;;;;;;;23.43;13.93;;;7.50;99.90;;;;;;4994212;28;20517;-87
2022/11/16 05:39:30;;;;;;;21.87;14.17;;;7.50;99.90;;;;;;4993626;28;20175;-84
2022/11/16 05:41:56;;;;;;;22.97;13.90;;;7.50;99.90;;;;;;4993516;28;20183;-84
2022/11/16 05:44:22;;;;;;;23.30;15.07;;;7.50;99.90;;;;;;4993117;28;20176;-85
2022/11/16 05:46:48;;;;;;;18.67;13.20;;;7.40;99.90;;;;;;4993208;28;20267;-85
2022/11/16 05:49:15;;;;;;;21.53;14.50;;;7.40;99.90;;;;;;4993680;28;20180;-84
2022/11/16 05:51:44;;;;;;;20.63;14.20;;;7.50;99.90;;;;;;4993369;28;20211;-84
2022/11/16 05:54:12;;;;;;;20.93;13.93;;;7.50;99.90;;;;;;4993290;28;20642;-84
2022/11/16 05:56:39;;;;;;;22.07;14.10;;;7.50;99.90;;;;;;4993103;28;20230;-85
2022/11/16 05:59:05;;;;;;;23.47;14.10;;;7.50;99.90;;;;;;4993204;28;20188;-85
2022/11/16 06:01:30;;;;;;;21.80;13.93;;;7.50;99.90;;;;;;4993365;28;20184;-87
2022/11/16 06:04:01;;;;;;;21.13;13.47;;;7.50;99.90;;;;;;4996719;28;20176;-86
2022/11/16 06:06:27;;;;;;;21.77;13.27;;;7.50;99.90;;;;;;4996794;28;20180;-86
2022/11/16 06:08:53;;;;;;;20.87;13.30;;;7.50;99.90;;;;;;4997000;28;20930;-87
2022/11/16 06:11:19;;;;;;;21.03;13.87;;;7.40;99.90;;;;;;4996961;28;20216;-86
2022/11/16 06:13:46;;;;;;;21.03;13.23;;;7.40;99.90;;;;;;4997310;28;20187;-85
2022/11/16 06:16:12;;;;;;;18.70;12.37;;;7.40;99.90;;;;;;5013508;28;20176;-87
2022/11/16 06:18:39;;;;;;;21.53;13.73;;;7.40;99.90;;;;;;4997532;28;20255;-85
2022/11/16 06:21:08;;;;;;;22.60;13.73;;;7.40;99.90;;;;;;4997043;28;20184;-87
2022/11/16 06:23:34;;;;;;;18.67;12.97;;;7.40;99.90;;;;;;4996866;28;20176;-86
2022/11/16 06:26:00;;;;;;;21.77;13.53;;;7.40;99.90;;;;;;4996173;28;20179;-83
2022/11/16 06:28:27;;;;;;;18.03;12.97;;;7.30;99.90;;;;;;4997042;28;20234;-86
2022/11/16 06:30:53;;;;;;;18.50;12.70;;;7.30;99.90;;;;;;4996680;28;20235;-86
2022/11/16 06:33:19;;;;;;;17.87;12.30;;;7.40;99.90;;;;;;4996857;28;20183;-87
2022/11/16 06:35:46;;;;;;;21.37;13.27;;;7.40;99.90;;;;;;4996642;28;20186;-86
2022/11/16 06:38:17;;;;;;;22.03;13.10;;;7.30;99.90;;;;;;4996913;28;20560;-86
2022/11/16 06:40:44;;;;;;;20.77;13.00;;;7.30;99.90;;;;;;4996501;28;20713;-87
2022/11/16 06:43:10;;;;;;;21.90;13.50;;;7.40;99.90;;;;;;4996733;28;20420;-86
2022/11/16 06:45:37;;;;;;;18.30;12.57;;;7.40;99.90;;;;;;4998368;28;20188;-86
2022/11/16 06:48:02;;;;;;;17.47;11.60;;;7.40;99.90;;;;;;4996518;28;20180;-85
2022/11/16 06:50:28;;;;;;;17.17;11.93;;;7.40;99.90;;;;;;4996242;28;20673;-91
2022/11/16 06:53:01;;;;;;;17.37;12.00;;;7.40;99.90;;;;;;4996595;28;20188;-88
2022/11/16 06:55:27;;;;;;;18.77;11.97;;;7.40;99.90;;;;;;4996228;28;20210;-85
2022/11/16 06:57:53;;;;;;;16.83;11.37;;;7.30;99.90;;;;;;4996372;28;20180;-84
2022/11/16 07:00:19;;;;;;;17.20;11.37;;;7.30;99.90;;;;;;4995965;28;20199;-84
2022/11/16 07:02:45;;;;;;;16.93;11.47;;;7.30;99.90;;;;;;4997511;28;20180;-86
2022/11/16 07:05:10;;;;;;;17.00;11.53;;;7.30;99.90;;;;;;4996627;28;20214;-86
2022/11/16 07:07:36;;;;;;;24.13;13.10;;;7.30;99.90;;;;;;4996264;28;20184;-88
2022/11/16 07:10:03;;;;;;;20.83;12.17;;;7.20;99.90;;;;;;4995782;28;20239;-87
2022/11/16 07:12:30;;;;;;;24.57;12.90;;;7.20;99.90;;;;;;4997328;28;20263;-86
2022/11/16 07:14:55;;;;;;;19.00;12.03;;;7.20;99.90;;;;;;4995682;28;20176;-88
2022/11/16 07:17:21;;;;;;;20.17;12.33;;;7.20;99.90;;;;;;4996117;28;20698;-86
2022/11/16 07:19:47;;;;;;;20.60;12.70;;;7.20;99.90;;;;;;4995987;28;20529;-86
2022/11/16 07:22:12;;;;;;;22.40;12.77;;;7.20;99.90;;;;;;4996266;28;20581;-90
2022/11/16 07:24:38;;;;;;;20.30;12.90;;;7.30;99.90;;;;;;4996005;28;20180;-87
2022/11/16 07:27:05;;;;;;;19.47;12.73;;;7.20;99.90;;;;;;4995263;28;20234;-89
2022/11/16 07:29:31;;;;;;;20.97;11.80;;;7.20;99.90;;;;;;4995709;28;20246;-86
2022/11/16 07:31:57;;;;;;;22.50;13.17;;;7.20;99.90;;;;;;4995511;28;20557;-84
2022/11/16 07:34:22;;;;;;;22.23;13.13;;;7.20;99.90;;;;;;4995546;28;20226;-86
2022/11/16 07:36:48;;;;;;;22.00;13.30;;;7.20;99.90;;;;;;4994976;28;20179;-85
2022/11/16 07:39:14;;;;;;;19.10;13.13;;;7.20;99.90;;;;;;4995083;28;20191;-84
2022/11/16 07:41:43;;;;;;;22.37;13.57;;;7.20;99.90;;;;;;4994648;28;20661;-83
2022/11/16 07:44:10;;;;;;;21.13;13.37;;;7.20;99.90;;;;;;4994949;28;20619;-86
2022/11/16 07:46:36;;;;;;;20.57;13.57;;;7.20;99.90;;;;;;4994778;28;20614;-85
2022/11/16 07:49:03;;;;;;;22.03;13.83;;;7.20;99.90;;;;;;4994883;28;20271;-86
2022/11/16 07:51:29;;;;;;;19.13;12.70;;;7.20;99.90;;;;;;4994991;28;20556;-87
2022/11/16 07:53:54;;;;;;;20.37;13.17;;;7.20;99.90;;;;;;4994618;28;20183;-85
2022/11/16 07:56:21;;;;;;;21.57;13.30;;;7.20;99.90;;;;;;4995364;28;20187;-86
2022/11/16 07:58:47;;;;;;;23.33;13.60;;;7.20;99.90;;;;;;4995331;28;20184;-85
2022/11/16 08:01:15;;;;;;;21.87;12.63;;;7.20;99.90;;;;;;4994628;28;20183;-85
2022/11/16 08:03:44;;;;;;;20.20;13.83;;;7.20;99.90;;;;;;4994787;28;20738;-86
2022/11/16 08:06:15;;;;;;;21.87;13.83;;;7.20;99.90;;;;;;4996071;28;20172;-89
2022/11/16 08:08:41;;;;;;;22.03;13.60;;;7.20;99.90;;;;;;4994801;28;20732;-86
2022/11/16 08:11:09;;;;;;;21.33;13.00;;;7.20;99.90;;;;;;4994394;28;20559;-85
2022/11/16 08:13:36;;;;;;;20.20;13.20;;;7.20;99.90;;;;;;4994581;28;20266;-84
2022/11/16 08:16:09;;;;;;;22.43;14.20;;;7.30;99.90;;;;;;4994703;28;20183;-87
2022/11/16 08:18:36;;;;;;;22.13;13.33;;;7.20;99.90;;;;;;4994842;28;20207;-85
2022/11/16 08:21:03;;;;;;;22.27;14.10;;;7.20;99.90;;;;;;4995856;28;20180;-86
2022/11/16 08:23:29;;;;;;;21.80;13.27;;;7.20;99.90;;;;;;4994590;28;20184;-86
2022/11/16 08:26:00;;;;;;;20.80;13.67;;;7.30;99.90;;;;;;4996369;28;20192;-86
2022/11/16 08:28:26;;;;;;;21.20;13.83;;;7.30;99.90;;;;;;5011093;28;20191;-84
2022/11/16 08:30:52;;;;;;;21.27;13.63;;;7.30;99.90;;;;;;4995643;28;20559;-86
2022/11/16 08:33:20;;;;;;;21.77;13.77;;;7.30;99.90;;;;;;4994529;28;20268;-85
2022/11/16 08:35:47;;;;;;;22.73;13.80;;;7.30;99.90;;;;;;5011464;28;20564;-85
2022/11/16 08:38:13;;;;;;;23.50;14.50;;;7.30;99.90;;;;;;4995000;28;20208;-84
2022/11/16 08:40:39;;;;;;;24.17;15.23;;;7.30;99.90;;;;;;4994665;28;20243;-88
2022/11/16 08:43:06;;;;;;;22.27;13.67;;;7.30;99.90;;;;;;4994802;28;20195;-85
2022/11/16 08:45:32;;;;;;;21.63;13.90;;;7.30;99.90;;;;;;4994729;28;20198;-87
2022/11/16 08:47:59;;;;;;;24.67;14.27;;;7.30;99.90;;;;;;4994556;28;20172;-87
2022/11/16 08:50:25;;;;;;;24.33;13.63;;;7.30;99.90;;;;;;4994736;28;20219;-88
2022/11/16 08:52:51;;;;;;;25.90;15.20;;;7.20;99.90;;;;;;4993850;28;20615;-85
2022/11/16 08:55:17;;;;;;;24.17;14.60;;;7.30;99.90;;;;;;4993575;28;20172;-86
2022/11/16 08:57:44;;;;;;;24.07;13.87;;;7.30;99.90;;;;;;4993534;28;20176;-85
2022/11/16 09:00:10;;;;;;;22.60;13.97;;;7.30;99.90;;;;;;4993600;28;20184;-86
2022/11/16 09:02:37;;;;;;;24.27;14.60;;;7.30;99.90;;;;;;5010227;28;20184;-88
2022/11/16 09:05:03;;;;;;;24.10;14.53;;;7.30;99.90;;;;;;4993694;28;20254;-86
2022/11/16 09:07:29;;;;;;;27.30;15.30;;;7.30;99.90;;;;;;4993909;28;20283;-84
2022/11/16 09:09:54;;;;;;;27.87;14.90;;;7.30;99.90;;;;;;4993502;28;20255;-84
2022/11/16 09:12:20;;;;;;;24.53;15.17;;;7.40;99.90;;;;;;4993488;28;20191;-85
2022/11/16 09:14:46;;;;;;;21.07;13.73;;;7.30;99.90;;;;;;4993509;28;20208;-84
2022/11/16 09:17:11;;;;;;;25.10;14.53;;;7.30;99.90;;;;;;4993896;28;20544;-83
2022/11/16 09:19:37;;;;;;;27.73;16.00;;;7.30;99.90;;;;;;4995017;28;20669;-85
2022/11/16 09:22:03;;;;;;;23.80;13.80;;;7.30;99.90;;;;;;4994113;28;20263;-84
2022/11/16 09:24:30;;;;;;;24.60;13.93;;;7.30;99.90;;;;;;4993807;28;20211;-86
2022/11/16 09:27:00;;;;;;;23.83;14.90;;;7.30;99.90;;;;;;4995842;28;20219;-85
2022/11/16 09:29:29;;;;;;;24.03;14.50;;;7.30;99.90;;;;;;4993604;28;20187;-86
2022/11/16 09:31:57;;;;;;;22.83;14.23;;;7.30;99.90;;;;;;4993679;28;20204;-83
2022/11/16 09:34:23;;;;;;;25.93;14.70;;;7.30;99.90;;;;;;4993472;28;20179;-85
2022/11/16 09:36:49;;;;;;;26.57;15.10;;;7.30;99.90;;;;;;4993896;28;20203;-88
2022/11/16 09:39:14;;;;;;;21.40;13.27;;;7.30;99.90;;;;;;4997764;28;20595;-84
2022/11/16 09:42:16;;;;;;;27.33;14.00;;;7.30;99.90;;;;;;4997494;28;20625;-84
2022/11/16 09:45:11;;;;;;;23.40;13.50;;;7.30;99.90;;;;;;4997424;28;20189;-84
2022/11/16 09:47:58;;;;;;;26.13;14.03;;;7.30;99.90;;;;;;5014027;28;20238;-86
2022/11/16 09:50:41;;;;;;;26.73;14.03;;;7.20;99.90;;;;;;4997400;28;20203;-85
2022/11/16 09:53:37;;;;;;;25.57;13.77;;;7.20;99.90;;;;;;4997302;28;20266;-83
2022/11/16 09:56:07;;;;;;;30.03;13.93;;;7.20;99.90;;;;;;4998356;28;20255;-88
2022/11/16 09:58:50;;;;;;;23.10;13.67;;;7.20;99.90;;;;;;4997426;28;20206;-85
2022/11/16 10:01:27;;;;;;;27.57;14.70;;;7.30;99.90;;;;;;4997228;28;20218;-84
2022/11/16 10:04:19;;;;;;;22.90;14.13;;;7.30;99.90;;;;;;4997106;28;20182;-85
2022/11/16 10:07:09;;;;;;;28.13;13.67;;;7.20;99.90;;;;;;4997853;28;20160;-86
2022/11/16 10:09:35;;;;;;;22.87;13.23;;;7.30;99.90;;;;;;4996734;28;20231;-84
2022/11/16 10:12:34;;;;;;;26.47;13.73;;;7.30;99.90;;;;;;5013279;28;20302;-82
2022/11/16 10:15:19;;;;;;;27.83;13.47;;;7.20;99.90;;;;;;4997126;28;20172;-83
2022/11/16 10:17:59;;;;;;;25.70;13.67;;;7.20;99.90;;;;;;4997025;28;20176;-84
2022/11/16 10:20:36;;;;;;;30.53;15.70;;;7.20;99.90;;;;;;4996810;28;20197;-83
2022/11/16 10:23:14;;;;;;;28.13;13.93;;;7.20;99.90;;;;;;4996303;28;20179;-84
2022/11/16 10:25:45;;;;;;;23.60;13.63;;;7.20;99.90;;;;;;4995418;28;20575;-84
2022/11/16 10:28:46;;;;;;;27.07;13.90;;;7.30;99.90;;;;;;4996070;28;20180;-82
2022/11/16 10:31:18;;;;;;;26.93;14.27;;;7.30;99.90;;;;;;4931205;28;20225;-81
2022/11/16 10:33:49;;;;;;;25.70;14.33;;;7.30;99.90;;;;;;4997443;28;20168;-84
2022/11/16 10:36:16;;;;;;;26.90;14.60;;;7.40;99.90;;;;;;4993731;28;20184;-82
2022/11/16 10:38:44;;;;;;;29.33;14.63;;;7.40;99.90;;;;;;4986515;28;20188;-81
2022/11/16 10:41:24;;;;;;;28.67;15.73;;;7.30;99.90;;;;;;4985158;28;20180;-81
2022/11/16 10:43:50;;;;;;;25.90;14.50;;;7.40;99.90;;;;;;4996009;28;20580;-83
2022/11/16 10:46:43;;;;;;;29.43;15.13;;;7.40;99.90;;;;;;4995409;28;20219;-83
2022/11/16 10:49:14;;;;;;;26.37;14.10;;;7.40;99.90;;;;;;4994860;28;20257;-82
2022/11/16 10:51:41;;;;;;;27.53;14.80;;;7.40;99.90;;;;;;4995661;28;20200;-81
2022/11/16 10:54:14;;;;;;;24.93;14.33;;;7.40;99.90;;;;;;4995591;28;20203;-82
2022/11/16 10:56:44;;;;;;;27.97;14.73;;;7.40;99.90;;;;;;4995318;28;20191;-81
2022/11/16 10:59:12;;;;;;;26.53;14.90;;;7.50;99.90;;;;;;4995535;28;20176;-83
2022/11/16 11:01:57;;;;;;;27.50;14.07;;;7.50;99.90;;;;;;4995986;28;20187;-85
2022/11/16 11:04:28;;;;;;;23.47;14.03;;;7.60;99.90;;;;;;4995384;28;20267;-83
2022/11/16 11:06:59;;;;;;;26.17;13.70;;;7.50;99.90;;;;;;4995434;28;20172;-84
2022/11/16 11:09:34;;;;;;;28.93;14.47;;;7.50;99.90;;;;;;4995008;28;20224;-84
2022/11/16 11:15:10;;;;;;;25.77;14.43;;;7.50;99.90;;;;;;4996697;28;20199;-83
2022/11/16 11:17:47;;;;;;;26.77;14.10;;;7.50;99.90;;;;;;4995029;28;20183;-84
2022/11/16 11:20:15;;;;;;;25.07;14.43;;;7.50;99.90;;;;;;4995274;28;20178;-82
2022/11/16 11:22:46;;;;;;;25.07;14.13;;;7.50;99.90;;;;;;4995228;28;20203;-82
2022/11/16 11:25:22;;;;;;;27.13;15.27;;;7.50;99.90;;;;;;4994693;28;20645;-81
2022/11/16 11:27:49;;;;;;;27.80;15.60;;;7.50;99.90;;;;;;4975196;28;20196;-81
2022/11/16 11:30:20;;;;;;;28.53;14.53;;;7.50;99.90;;;;;;4976707;28;20598;-80
2022/11/16 11:32:47;;;;;;;29.90;15.73;;;7.50;99.90;;;;;;4975752;28;20195;-83
2022/11/16 11:35:26;;;;;;;26.93;14.87;;;7.50;99.90;;;;;;4975493;28;20181;-82
2022/11/16 11:37:55;;;;;;;26.53;15.27;;;7.50;99.90;;;;;;4975808;28;20231;-83
2022/11/16 11:40:29;;;;;;;30.73;15.13;;;7.50;99.90;;;;;;4975331;28;20275;-82
2022/11/16 11:43:04;;;;;;;26.40;15.53;;;7.50;99.90;;;;;;4975252;28;20177;-83
2022/11/16 11:45:43;;;;;;;28.23;15.47;;;7.60;99.90;;;;;;4991552;28;20184;-83
2022/11/16 11:48:36;;;;;;;23.97;14.80;;;7.60;99.90;;;;;;4975301;28;20560;-83
2022/11/16 11:51:26;;;;;;;27.23;15.33;;;7.50;99.90;;;;;;4975415;28;20208;-84
2022/11/16 11:53:58;;;;;;;25.37;14.93;;;7.50;99.90;;;;;;4977210;28;20168;-83
2022/11/16 11:56:26;;;;;;;29.33;15.33;;;7.60;99.90;;;;;;5002899;28;20211;-85
2022/11/16 11:58:52;;;;;;;33.80;16.33;;;7.60;99.90;;;;;;5014052;28;20626;-83
2022/11/16 12:01:30;;;;;;;27.60;15.47;;;7.60;99.90;;;;;;5013907;28;20184;-82
2022/11/16 12:04:17;;;;;;;33.67;18.20;;;7.60;99.90;;;;;;5014203;28;20273;-84
2022/11/16 12:06:52;;;;;;;30.60;17.20;;;7.60;99.90;;;;;;5013898;28;20516;-84
2022/11/16 12:09:30;;;;;;;27.73;16.57;;;7.60;99.90;;;;;;5013938;28;20249;-84
2022/11/16 12:12:07;;;;;;;29.27;16.33;;;7.60;99.90;;;;;;5014854;28;20306;-84
2022/11/16 12:14:58;;;;;;;29.73;18.00;;;7.60;99.90;;;;;;5014186;28;20517;-85
2022/11/16 12:17:41;;;;;;;33.43;17.33;;;7.60;99.90;;;;;;5014119;28;20701;-86
2022/11/16 12:20:33;;;;;;;29.40;16.80;;;7.60;99.90;;;;;;5013610;28;20176;-83
2022/11/16 12:23:18;;;;;;;32.40;17.50;;;7.60;99.90;;;;;;5006412;28;20233;-83
2022/11/16 12:26:17;;;;;;;31.47;16.97;;;7.60;99.90;;;;;;5010061;28;20274;-82
2022/11/16 12:28:58;;;;;;;30.70;17.30;;;7.60;99.90;;;;;;4994275;28;20775;-84
2022/11/16 12:31:30;;;;;;;30.47;16.87;;;7.60;99.90;;;;;;4995776;28;20214;-85
2022/11/16 12:34:34;;;;;;;33.63;17.27;;;7.60;99.90;;;;;;4994864;28;20175;-87
2022/11/16 12:37:04;;;;;;;31.43;18.07;;;7.60;99.90;;;;;;4994713;28;20172;-86
2022/11/16 12:39:40;;;;;;;32.27;16.60;;;7.60;99.90;;;;;;4994891;28;20616;-86
2022/11/16 12:42:44;;;;;;;30.73;17.53;;;7.60;99.90;;;;;;4994338;28;20176;-85
2022/11/16 12:45:41;;;;;;;30.97;18.03;;;7.60;99.90;;;;;;4994264;28;20188;-85
2022/11/16 12:48:27;;;;;;;35.87;19.87;;;7.60;99.90;;;;;;4995445;28;20246;-83
2022/11/16 12:51:00;;;;;;;41.77;20.43;;;7.50;99.90;;;;;;4994428;28;20547;-85
2022/11/16 12:53:39;;;;;;;39.60;20.30;;;7.50;99.90;;;;;;4993957;28;20175;-84
2022/11/16 12:56:42;;;;;;;39.60;21.33;;;7.50;99.90;;;;;;4998066;28;20309;-83
2022/11/16 12:59:34;;;;;;;39.10;20.87;;;7.50;99.90;;;;;;4993533;28;20211;-83
2022/11/16 13:02:28;;;;;;;42.27;22.70;;;7.40;99.90;;;;;;4993301;28;20498;-82
2022/11/16 13:05:11;;;;;;;45.27;22.00;;;7.40;99.90;;;;;;4998439;28;20179;-81
2022/11/16 13:07:46;;;;;;;43.03;20.20;;;7.40;99.90;;;;;;4999191;28;20222;-81
2022/11/16 13:10:15;;;;;;;35.63;18.37;;;7.40;99.90;;;;;;4973564;28;20326;-83
2022/11/16 13:12:44;;;;;;;35.03;17.67;;;7.40;99.90;;;;;;4989360;28;20192;-82
2022/11/16 13:15:21;;;;;;;36.47;18.43;;;7.40;99.90;;;;;;4990700;28;20262;-82
2022/11/16 13:17:54;;;;;;;35.60;18.67;;;7.40;99.90;;;;;;5013255;28;20527;-81
2022/11/16 13:20:44;;;;;;;37.33;19.27;;;7.30;99.90;;;;;;5012891;28;20234;-82
2022/11/16 13:23:22;;;;;;;33.10;17.70;;;7.30;99.90;;;;;;5014357;28;20614;-82
2022/11/16 13:25:51;;;;;;;37.83;18.83;;;7.30;99.90;;;;;;5010493;28;20237;-84
2022/11/16 13:28:28;;;;;;;34.47;17.87;;;7.30;99.90;;;;;;4993070;28;20187;-84
2022/11/16 13:31:01;;;;;;;34.90;18.27;;;7.30;99.90;;;;;;4992930;28;20668;-83
2022/11/16 13:33:58;;;;;;;36.90;18.40;;;7.30;99.90;;;;;;4993049;28;20271;-82
2022/11/16 13:36:43;;;;;;;37.17;18.50;;;7.30;99.90;;;;;;4992219;28;20191;-83
2022/11/16 13:39:12;;;;;;;34.97;19.50;;;7.30;99.90;;;;;;4993092;28;20176;-83
2022/11/16 13:41:42;;;;;;;33.50;18.30;;;7.30;99.90;;;;;;4993991;28;20603;-84
2022/11/16 13:44:18;;;;;;;34.47;18.10;;;7.20;99.90;;;;;;4993082;28;20226;-84